sensor_id;sensor_type;location;lat;lon;timestamp;P1;durP1;ratioP1;P2;durP2;ratioP2
7983;SDS011;4037;47.980;10.172;2022-12-01T00:00:39;29.03;;;17.67;;
7983;SDS011;4037;47.980;10.172;2022-12-01T00:03:05;33.50;;;19.27;;
7983;SDS011;4037;47.980;10.172;2022-12-01T00:05:31;33.73;;;19.63;;
7983;SDS011;4037;47.980;10.172;2022-12-01T00:07:57;30.50;;;18.60;;
7983;SDS011;4037;47.980;10.172;2022-12-01T00:10:24;34.03;;;19.57;;
7983;SDS011;4037;47.980;10.172;2022-12-01T00:13:00;30.53;;;17.77;;
7983;SDS011;4037;47.980;10.172;2022-12-01T00:15:27;27.63;;;17.20;;
7983;SDS011;4037;47.980;10.172;2022-12-01T00:17:53;30.27;;;18.47;;
7983;SDS011;4037;47.980;10.172;2022-12-01T00:20:19;30.47;;;17.07;;
7983;SDS011;4037;47.980;10.172;2022-12-01T00:22:46;32.20;;;17.93;;
7983;SDS011;4037;47.980;10.172;2022-12-01T00:25:12;28.77;;;18.07;;
7983;SDS011;4037;47.980;10.172;2022-12-01T00:27:39;28.47;;;17.80;;
7983;SDS011;4037;47.980;10.172;2022-12-01T00:30:06;31.67;;;19.37;;
7983;SDS011;4037;47.980;10.172;2022-12-01T00:32:32;29.43;;;18.00;;
7983;SDS011;4037;47.980;10.172;2022-12-01T00:34:58;26.67;;;16.40;;
7983;SDS011;4037;47.980;10.172;2022-12-01T00:37:24;29.00;;;17.20;;
7983;SDS011;4037;47.980;10.172;2022-12-01T00:39:50;30.80;;;17.97;;
7983;SDS011;4037;47.980;10.172;2022-12-01T00:42:16;30.43;;;18.17;;
7983;SDS011;4037;47.980;10.172;2022-12-01T00:44:45;29.27;;;17.87;;
7983;SDS011;4037;47.980;10.172;2022-12-01T00:47:11;30.90;;;18.87;;
7983;SDS011;4037;47.980;10.172;2022-12-01T00:49:37;29.10;;;17.47;;
7983;SDS011;4037;47.980;10.172;2022-12-01T00:52:04;26.23;;;17.03;;
7983;SDS011;4037;47.980;10.172;2022-12-01T00:54:30;31.73;;;19.13;;
7983;SDS011;4037;47.980;10.172;2022-12-01T00:56:56;31.80;;;17.33;;
7983;SDS011;4037;47.980;10.172;2022-12-01T00:59:23;28.57;;;16.43;;
7983;SDS011;4037;47.980;10.172;2022-12-01T01:01:49;27.60;;;17.73;;
7983;SDS011;4037;47.980;10.172;2022-12-01T01:04:15;26.57;;;16.13;;
7983;SDS011;4037;47.980;10.172;2022-12-01T01:06:41;28.63;;;17.80;;
7983;SDS011;4037;47.980;10.172;2022-12-01T01:09:07;30.27;;;18.07;;
7983;SDS011;4037;47.980;10.172;2022-12-01T01:11:33;28.87;;;17.83;;
7983;SDS011;4037;47.980;10.172;2022-12-01T01:13:59;29.47;;;18.03;;
7983;SDS011;4037;47.980;10.172;2022-12-01T01:16:25;25.27;;;15.90;;
7983;SDS011;4037;47.980;10.172;2022-12-01T01:18:51;29.47;;;18.47;;
7983;SDS011;4037;47.980;10.172;2022-12-01T01:21:19;29.13;;;17.73;;
7983;SDS011;4037;47.980;10.172;2022-12-01T01:23:45;31.60;;;19.60;;
7983;SDS011;4037;47.980;10.172;2022-12-01T01:26:32;27.70;;;16.47;;
7983;SDS011;4037;47.980;10.172;2022-12-01T01:28:58;27.20;;;17.77;;
7983;SDS011;4037;47.980;10.172;2022-12-01T01:31:25;28.80;;;18.20;;
7983;SDS011;4037;47.980;10.172;2022-12-01T01:33:52;30.57;;;18.33;;
7983;SDS011;4037;47.980;10.172;2022-12-01T01:36:18;35.90;;;18.07;;
7983;SDS011;4037;47.980;10.172;2022-12-01T01:38:44;33.63;;;19.93;;
7983;SDS011;4037;47.980;10.172;2022-12-01T01:41:10;30.83;;;19.37;;
7983;SDS011;4037;47.980;10.172;2022-12-01T01:46:03;32.93;;;20.40;;
7983;SDS011;4037;47.980;10.172;2022-12-01T01:48:29;29.13;;;18.43;;
7983;SDS011;4037;47.980;10.172;2022-12-01T01:50:55;35.43;;;20.97;;
7983;SDS011;4037;47.980;10.172;2022-12-01T01:53:21;37.87;;;21.07;;
7983;SDS011;4037;47.980;10.172;2022-12-01T01:55:47;32.73;;;19.67;;
7983;SDS011;4037;47.980;10.172;2022-12-01T01:58:13;33.40;;;19.00;;
7983;SDS011;4037;47.980;10.172;2022-12-01T02:00:40;30.30;;;19.17;;
7983;SDS011;4037;47.980;10.172;2022-12-01T02:03:07;30.97;;;18.90;;
7983;SDS011;4037;47.980;10.172;2022-12-01T02:05:35;30.93;;;19.17;;
7983;SDS011;4037;47.980;10.172;2022-12-01T02:08:02;33.70;;;20.03;;
7983;SDS011;4037;47.980;10.172;2022-12-01T02:18:26;35.27;;;19.47;;
7983;SDS011;4037;47.980;10.172;2022-12-01T02:21:53;34.87;;;19.20;;
7983;SDS011;4037;47.980;10.172;2022-12-01T02:34:18;33.77;;;20.60;;
7983;SDS011;4037;47.980;10.172;2022-12-01T02:37:06;32.83;;;21.27;;
7983;SDS011;4037;47.980;10.172;2022-12-01T02:39:34;37.70;;;22.43;;
7983;SDS011;4037;47.980;10.172;2022-12-01T02:42:13;35.00;;;19.83;;
7983;SDS011;4037;47.980;10.172;2022-12-01T02:45:06;36.27;;;20.60;;
7983;SDS011;4037;47.980;10.172;2022-12-01T02:47:35;35.37;;;21.87;;
7983;SDS011;4037;47.980;10.172;2022-12-01T02:50:02;37.53;;;21.10;;
7983;SDS011;4037;47.980;10.172;2022-12-01T02:52:28;37.90;;;21.57;;
7983;SDS011;4037;47.980;10.172;2022-12-01T02:54:55;37.23;;;21.87;;
7983;SDS011;4037;47.980;10.172;2022-12-01T02:57:21;37.53;;;21.97;;
7983;SDS011;4037;47.980;10.172;2022-12-01T02:59:48;34.17;;;20.83;;
7983;SDS011;4037;47.980;10.172;2022-12-01T03:10:12;38.30;;;21.57;;
7983;SDS011;4037;47.980;10.172;2022-12-01T03:12:56;33.23;;;20.33;;
7983;SDS011;4037;47.980;10.172;2022-12-01T03:15:44;40.33;;;21.80;;
7983;SDS011;4037;47.980;10.172;2022-12-01T03:23:12;37.53;;;21.13;;
7983;SDS011;4037;47.980;10.172;2022-12-01T03:25:40;35.60;;;21.83;;
7983;SDS011;4037;47.980;10.172;2022-12-01T03:28:08;40.17;;;22.23;;
7983;SDS011;4037;47.980;10.172;2022-12-01T03:30:37;39.73;;;21.93;;
7983;SDS011;4037;47.980;10.172;2022-12-01T03:33:05;35.50;;;19.83;;
7983;SDS011;4037;47.980;10.172;2022-12-01T03:36:18;36.43;;;22.47;;
7983;SDS011;4037;47.980;10.172;2022-12-01T03:38:23;41.27;;;22.90;;
7983;SDS011;4037;47.980;10.172;2022-12-01T03:40:50;39.13;;;22.10;;
7983;SDS011;4037;47.980;10.172;2022-12-01T03:43:19;36.80;;;20.93;;
7983;SDS011;4037;47.980;10.172;2022-12-01T03:46:02;37.50;;;22.00;;
7983;SDS011;4037;47.980;10.172;2022-12-01T03:48:31;37.67;;;20.40;;
7983;SDS011;4037;47.980;10.172;2022-12-01T03:53:25;38.33;;;21.53;;
7983;SDS011;4037;47.980;10.172;2022-12-01T03:55:57;35.10;;;20.17;;
7983;SDS011;4037;47.980;10.172;2022-12-01T03:58:31;37.57;;;21.03;;
7983;SDS011;4037;47.980;10.172;2022-12-01T04:01:01;41.00;;;21.00;;
7983;SDS011;4037;47.980;10.172;2022-12-01T04:03:27;35.63;;;20.90;;
7983;SDS011;4037;47.980;10.172;2022-12-01T04:05:53;35.67;;;21.53;;
7983;SDS011;4037;47.980;10.172;2022-12-01T04:08:19;34.73;;;20.70;;
7983;SDS011;4037;47.980;10.172;2022-12-01T04:10:45;41.97;;;23.07;;
7983;SDS011;4037;47.980;10.172;2022-12-01T04:13:11;39.47;;;21.80;;
7983;SDS011;4037;47.980;10.172;2022-12-01T04:15:47;42.23;;;22.73;;
7983;SDS011;4037;47.980;10.172;2022-12-01T04:18:13;42.83;;;23.03;;
7983;SDS011;4037;47.980;10.172;2022-12-01T04:20:39;42.83;;;24.60;;
7983;SDS011;4037;47.980;10.172;2022-12-01T04:23:07;39.60;;;22.90;;
7983;SDS011;4037;47.980;10.172;2022-12-01T04:25:33;43.63;;;24.57;;
7983;SDS011;4037;47.980;10.172;2022-12-01T04:27:59;43.67;;;22.77;;
7983;SDS011;4037;47.980;10.172;2022-12-01T04:30:25;41.27;;;23.63;;
7983;SDS011;4037;47.980;10.172;2022-12-01T04:32:51;41.80;;;24.13;;
7983;SDS011;4037;47.980;10.172;2022-12-01T04:35:17;42.20;;;22.57;;
7983;SDS011;4037;47.980;10.172;2022-12-01T04:37:43;39.73;;;23.17;;
7983;SDS011;4037;47.980;10.172;2022-12-01T04:40:09;40.40;;;22.43;;
7983;SDS011;4037;47.980;10.172;2022-12-01T04:42:35;38.40;;;22.23;;
7983;SDS011;4037;47.980;10.172;2022-12-01T04:45:02;38.13;;;20.80;;
7983;SDS011;4037;47.980;10.172;2022-12-01T04:47:28;36.10;;;20.10;;
7983;SDS011;4037;47.980;10.172;2022-12-01T04:49:54;39.80;;;22.53;;
7983;SDS011;4037;47.980;10.172;2022-12-01T04:52:20;42.03;;;22.87;;
7983;SDS011;4037;47.980;10.172;2022-12-01T04:54:46;38.07;;;22.13;;
7983;SDS011;4037;47.980;10.172;2022-12-01T04:57:12;41.30;;;23.63;;
7983;SDS011;4037;47.980;10.172;2022-12-01T04:59:38;41.77;;;24.67;;
7983;SDS011;4037;47.980;10.172;2022-12-01T05:02:04;42.27;;;22.73;;
7983;SDS011;4037;47.980;10.172;2022-12-01T05:04:30;37.67;;;21.47;;
7983;SDS011;4037;47.980;10.172;2022-12-01T05:06:58;33.87;;;20.70;;
7983;SDS011;4037;47.980;10.172;2022-12-01T05:09:24;38.60;;;21.90;;
7983;SDS011;4037;47.980;10.172;2022-12-01T05:11:50;39.33;;;21.33;;
7983;SDS011;4037;47.980;10.172;2022-12-01T05:14:16;35.70;;;21.47;;
7983;SDS011;4037;47.980;10.172;2022-12-01T05:16:42;36.13;;;18.43;;
7983;SDS011;4037;47.980;10.172;2022-12-01T05:19:07;46.00;;;22.07;;
7983;SDS011;4037;47.980;10.172;2022-12-01T05:21:52;34.10;;;19.20;;
7983;SDS011;4037;47.980;10.172;2022-12-01T05:24:19;37.53;;;21.00;;
7983;SDS011;4037;47.980;10.172;2022-12-01T05:26:45;38.90;;;20.83;;
7983;SDS011;4037;47.980;10.172;2022-12-01T05:29:11;37.57;;;20.30;;
7983;SDS011;4037;47.980;10.172;2022-12-01T05:31:37;37.40;;;19.93;;
7983;SDS011;4037;47.980;10.172;2022-12-01T05:34:03;32.50;;;20.50;;
7983;SDS011;4037;47.980;10.172;2022-12-01T05:36:29;37.37;;;20.80;;
7983;SDS011;4037;47.980;10.172;2022-12-01T05:38:56;37.17;;;20.43;;
7983;SDS011;4037;47.980;10.172;2022-12-01T05:41:22;39.73;;;20.30;;
7983;SDS011;4037;47.980;10.172;2022-12-01T05:43:48;41.20;;;21.23;;
7983;SDS011;4037;47.980;10.172;2022-12-01T05:46:14;42.30;;;22.17;;
7983;SDS011;4037;47.980;10.172;2022-12-01T05:48:40;36.30;;;20.57;;
7983;SDS011;4037;47.980;10.172;2022-12-01T05:51:10;37.63;;;20.77;;
7983;SDS011;4037;47.980;10.172;2022-12-01T05:53:36;44.10;;;22.63;;
7983;SDS011;4037;47.980;10.172;2022-12-01T05:56:02;43.93;;;22.10;;
7983;SDS011;4037;47.980;10.172;2022-12-01T05:58:28;41.77;;;22.03;;
7983;SDS011;4037;47.980;10.172;2022-12-01T06:00:54;43.73;;;21.43;;
7983;SDS011;4037;47.980;10.172;2022-12-01T06:03:20;39.27;;;21.50;;
7983;SDS011;4037;47.980;10.172;2022-12-01T06:05:46;35.17;;;21.67;;
7983;SDS011;4037;47.980;10.172;2022-12-01T06:08:12;45.73;;;21.60;;
7983;SDS011;4037;47.980;10.172;2022-12-01T06:10:39;42.40;;;22.93;;
7983;SDS011;4037;47.980;10.172;2022-12-01T06:13:05;43.47;;;22.80;;
7983;SDS011;4037;47.980;10.172;2022-12-01T06:15:31;39.73;;;22.80;;
7983;SDS011;4037;47.980;10.172;2022-12-01T06:17:57;39.10;;;22.13;;
7983;SDS011;4037;47.980;10.172;2022-12-01T06:20:24;38.97;;;21.27;;
7983;SDS011;4037;47.980;10.172;2022-12-01T06:22:50;40.97;;;21.57;;
7983;SDS011;4037;47.980;10.172;2022-12-01T06:25:16;42.20;;;23.13;;
7983;SDS011;4037;47.980;10.172;2022-12-01T06:27:42;41.27;;;23.33;;
7983;SDS011;4037;47.980;10.172;2022-12-01T06:30:08;46.07;;;23.77;;
7983;SDS011;4037;47.980;10.172;2022-12-01T06:32:34;40.90;;;21.97;;
7983;SDS011;4037;47.980;10.172;2022-12-01T06:35:01;47.73;;;24.53;;
7983;SDS011;4037;47.980;10.172;2022-12-01T06:37:27;40.77;;;21.50;;
7983;SDS011;4037;47.980;10.172;2022-12-01T06:39:53;39.93;;;21.40;;
7983;SDS011;4037;47.980;10.172;2022-12-01T06:42:19;42.83;;;21.77;;
7983;SDS011;4037;47.980;10.172;2022-12-01T06:44:45;43.30;;;22.60;;
7983;SDS011;4037;47.980;10.172;2022-12-01T06:47:11;42.70;;;22.03;;
7983;SDS011;4037;47.980;10.172;2022-12-01T06:49:40;43.47;;;22.77;;
7983;SDS011;4037;47.980;10.172;2022-12-01T06:52:06;37.90;;;19.77;;
7983;SDS011;4037;47.980;10.172;2022-12-01T06:54:32;37.03;;;21.83;;
7983;SDS011;4037;47.980;10.172;2022-12-01T06:56:58;37.23;;;20.97;;
7983;SDS011;4037;47.980;10.172;2022-12-01T06:59:24;37.33;;;19.07;;
7983;SDS011;4037;47.980;10.172;2022-12-01T07:01:50;36.67;;;19.60;;
7983;SDS011;4037;47.980;10.172;2022-12-01T07:04:16;32.70;;;19.90;;
7983;SDS011;4037;47.980;10.172;2022-12-01T07:06:42;38.87;;;21.07;;
7983;SDS011;4037;47.980;10.172;2022-12-01T07:09:08;37.73;;;20.00;;
7983;SDS011;4037;47.980;10.172;2022-12-01T07:11:34;40.07;;;20.07;;
7983;SDS011;4037;47.980;10.172;2022-12-01T07:14:01;46.30;;;25.23;;
7983;SDS011;4037;47.980;10.172;2022-12-01T07:16:27;43.93;;;22.43;;
7983;SDS011;4037;47.980;10.172;2022-12-01T07:18:53;37.10;;;21.23;;
7983;SDS011;4037;47.980;10.172;2022-12-01T07:21:20;38.33;;;21.23;;
7983;SDS011;4037;47.980;10.172;2022-12-01T07:23:46;37.17;;;20.90;;
7983;SDS011;4037;47.980;10.172;2022-12-01T07:26:13;39.93;;;20.63;;
7983;SDS011;4037;47.980;10.172;2022-12-01T07:28:39;39.60;;;21.97;;
7983;SDS011;4037;47.980;10.172;2022-12-01T07:31:07;46.30;;;22.17;;
7983;SDS011;4037;47.980;10.172;2022-12-01T07:33:33;44.33;;;22.13;;
7983;SDS011;4037;47.980;10.172;2022-12-01T07:35:59;39.90;;;21.17;;
7983;SDS011;4037;47.980;10.172;2022-12-01T07:38:29;40.50;;;20.80;;
7983;SDS011;4037;47.980;10.172;2022-12-01T07:41:00;46.40;;;22.57;;
7983;SDS011;4037;47.980;10.172;2022-12-01T07:43:26;44.87;;;23.50;;
7983;SDS011;4037;47.980;10.172;2022-12-01T07:45:52;41.73;;;21.67;;
7983;SDS011;4037;47.980;10.172;2022-12-01T07:48:18;40.40;;;21.60;;
7983;SDS011;4037;47.980;10.172;2022-12-01T07:50:44;41.93;;;21.03;;
7983;SDS011;4037;47.980;10.172;2022-12-01T07:53:10;42.53;;;21.33;;
7983;SDS011;4037;47.980;10.172;2022-12-01T07:55:36;37.67;;;20.50;;
7983;SDS011;4037;47.980;10.172;2022-12-01T07:58:02;40.40;;;20.43;;
7983;SDS011;4037;47.980;10.172;2022-12-01T08:00:28;42.03;;;20.00;;
7983;SDS011;4037;47.980;10.172;2022-12-01T08:02:54;41.60;;;20.13;;
7983;SDS011;4037;47.980;10.172;2022-12-01T08:05:20;47.23;;;22.53;;
7983;SDS011;4037;47.980;10.172;2022-12-01T08:07:46;43.53;;;21.03;;
7983;SDS011;4037;47.980;10.172;2022-12-01T08:10:12;43.90;;;21.20;;
7983;SDS011;4037;47.980;10.172;2022-12-01T08:12:38;53.73;;;21.87;;
7983;SDS011;4037;47.980;10.172;2022-12-01T08:15:04;46.00;;;23.47;;
7983;SDS011;4037;47.980;10.172;2022-12-01T08:17:30;41.53;;;20.00;;
7983;SDS011;4037;47.980;10.172;2022-12-01T08:19:56;45.00;;;23.07;;
7983;SDS011;4037;47.980;10.172;2022-12-01T08:22:22;50.50;;;22.97;;
7983;SDS011;4037;47.980;10.172;2022-12-01T08:24:48;49.40;;;22.90;;
7983;SDS011;4037;47.980;10.172;2022-12-01T08:27:14;48.83;;;23.63;;
7983;SDS011;4037;47.980;10.172;2022-12-01T08:29:40;48.37;;;23.90;;
7983;SDS011;4037;47.980;10.172;2022-12-01T08:32:06;48.13;;;22.87;;
7983;SDS011;4037;47.980;10.172;2022-12-01T08:34:34;45.60;;;22.20;;
7983;SDS011;4037;47.980;10.172;2022-12-01T08:37:05;48.57;;;21.67;;
7983;SDS011;4037;47.980;10.172;2022-12-01T08:39:31;44.47;;;20.90;;
7983;SDS011;4037;47.980;10.172;2022-12-01T08:41:57;52.30;;;22.73;;
7983;SDS011;4037;47.980;10.172;2022-12-01T08:44:23;47.77;;;22.70;;
7983;SDS011;4037;47.980;10.172;2022-12-01T08:46:49;43.30;;;21.50;;
7983;SDS011;4037;47.980;10.172;2022-12-01T08:49:15;41.33;;;20.80;;
7983;SDS011;4037;47.980;10.172;2022-12-01T08:51:41;48.57;;;22.20;;
7983;SDS011;4037;47.980;10.172;2022-12-01T08:54:08;45.63;;;23.00;;
7983;SDS011;4037;47.980;10.172;2022-12-01T08:56:36;49.30;;;24.27;;
7983;SDS011;4037;47.980;10.172;2022-12-01T08:59:03;47.97;;;22.30;;
7983;SDS011;4037;47.980;10.172;2022-12-01T09:01:29;46.43;;;22.10;;
7983;SDS011;4037;47.980;10.172;2022-12-01T09:03:57;45.33;;;21.07;;
7983;SDS011;4037;47.980;10.172;2022-12-01T09:06:30;48.70;;;20.93;;
7983;SDS011;4037;47.980;10.172;2022-12-01T09:08:59;52.30;;;22.73;;
7983;SDS011;4037;47.980;10.172;2022-12-01T09:11:25;44.90;;;22.87;;
7983;SDS011;4037;47.980;10.172;2022-12-01T09:13:51;49.47;;;23.27;;
7983;SDS011;4037;47.980;10.172;2022-12-01T09:16:17;49.13;;;22.57;;
7983;SDS011;4037;47.980;10.172;2022-12-01T09:18:44;47.47;;;24.00;;
7983;SDS011;4037;47.980;10.172;2022-12-01T09:21:15;49.30;;;23.70;;
7983;SDS011;4037;47.980;10.172;2022-12-01T09:23:41;51.77;;;22.30;;
7983;SDS011;4037;47.980;10.172;2022-12-01T09:26:07;50.93;;;22.53;;
7983;SDS011;4037;47.980;10.172;2022-12-01T09:28:34;53.47;;;22.77;;
7983;SDS011;4037;47.980;10.172;2022-12-01T09:31:04;49.97;;;23.53;;
7983;SDS011;4037;47.980;10.172;2022-12-01T09:33:30;54.83;;;25.50;;
7983;SDS011;4037;47.980;10.172;2022-12-01T09:35:56;56.67;;;25.53;;
7983;SDS011;4037;47.980;10.172;2022-12-01T09:38:23;59.00;;;25.10;;
7983;SDS011;4037;47.980;10.172;2022-12-01T09:40:49;53.20;;;24.03;;
7983;SDS011;4037;47.980;10.172;2022-12-01T09:43:19;58.97;;;25.03;;
7983;SDS011;4037;47.980;10.172;2022-12-01T09:45:49;52.00;;;23.50;;
7983;SDS011;4037;47.980;10.172;2022-12-01T09:48:23;53.40;;;22.40;;
7983;SDS011;4037;47.980;10.172;2022-12-01T09:50:50;48.70;;;24.33;;
7983;SDS011;4037;47.980;10.172;2022-12-01T09:53:17;55.53;;;26.00;;
7983;SDS011;4037;47.980;10.172;2022-12-01T09:55:44;52.40;;;22.47;;
7983;SDS011;4037;47.980;10.172;2022-12-01T09:58:15;49.73;;;24.07;;
7983;SDS011;4037;47.980;10.172;2022-12-01T10:00:42;45.57;;;23.00;;
7983;SDS011;4037;47.980;10.172;2022-12-01T10:03:30;46.97;;;23.00;;
7983;SDS011;4037;47.980;10.172;2022-12-01T10:06:00;56.63;;;24.67;;
7983;SDS011;4037;47.980;10.172;2022-12-01T10:08:28;50.47;;;23.60;;
7983;SDS011;4037;47.980;10.172;2022-12-01T10:10:56;54.17;;;23.80;;
7983;SDS011;4037;47.980;10.172;2022-12-01T10:13:24;50.63;;;23.67;;
7983;SDS011;4037;47.980;10.172;2022-12-01T10:16:08;46.03;;;22.87;;
7983;SDS011;4037;47.980;10.172;2022-12-01T10:26:01;49.20;;;24.37;;
7983;SDS011;4037;47.980;10.172;2022-12-01T10:31:23;49.40;;;23.50;;
7983;SDS011;4037;47.980;10.172;2022-12-01T10:36:23;50.73;;;23.33;;
7983;SDS011;4037;47.980;10.172;2022-12-01T10:38:49;43.40;;;23.33;;
7983;SDS011;4037;47.980;10.172;2022-12-01T10:41:16;43.67;;;22.40;;
7983;SDS011;4037;47.980;10.172;2022-12-01T10:43:45;42.57;;;22.97;;
7983;SDS011;4037;47.980;10.172;2022-12-01T10:48:54;49.83;;;24.57;;
7983;SDS011;4037;47.980;10.172;2022-12-01T10:51:21;43.30;;;22.97;;
7983;SDS011;4037;47.980;10.172;2022-12-01T10:53:47;45.70;;;23.40;;
7983;SDS011;4037;47.980;10.172;2022-12-01T10:56:18;47.20;;;22.87;;
7983;SDS011;4037;47.980;10.172;2022-12-01T11:01:27;41.53;;;20.73;;
7983;SDS011;4037;47.980;10.172;2022-12-01T11:06:23;38.50;;;19.97;;
7983;SDS011;4037;47.980;10.172;2022-12-01T11:08:50;40.43;;;20.80;;
7983;SDS011;4037;47.980;10.172;2022-12-01T11:11:38;39.73;;;21.33;;
7983;SDS011;4037;47.980;10.172;2022-12-01T11:14:05;40.73;;;21.07;;
7983;SDS011;4037;47.980;10.172;2022-12-01T11:16:41;44.07;;;21.23;;
7983;SDS011;4037;47.980;10.172;2022-12-01T11:19:19;39.47;;;21.13;;
7983;SDS011;4037;47.980;10.172;2022-12-01T11:21:46;36.57;;;20.40;;
7983;SDS011;4037;47.980;10.172;2022-12-01T11:26:54;37.53;;;20.70;;
7983;SDS011;4037;47.980;10.172;2022-12-01T11:31:56;38.83;;;20.77;;
7983;SDS011;4037;47.980;10.172;2022-12-01T11:34:23;39.20;;;21.50;;
7983;SDS011;4037;47.980;10.172;2022-12-01T11:36:51;44.57;;;23.03;;
7983;SDS011;4037;47.980;10.172;2022-12-01T11:39:24;41.80;;;20.73;;
7983;SDS011;4037;47.980;10.172;2022-12-01T11:41:55;34.77;;;20.93;;
7983;SDS011;4037;47.980;10.172;2022-12-01T11:44:21;36.27;;;19.63;;
7983;SDS011;4037;47.980;10.172;2022-12-01T11:46:47;34.80;;;20.40;;
7983;SDS011;4037;47.980;10.172;2022-12-01T11:49:18;39.90;;;21.67;;
7983;SDS011;4037;47.980;10.172;2022-12-01T11:51:44;40.97;;;23.27;;
7983;SDS011;4037;47.980;10.172;2022-12-01T11:54:24;38.00;;;20.97;;
7983;SDS011;4037;47.980;10.172;2022-12-01T11:56:51;30.93;;;18.03;;
7983;SDS011;4037;47.980;10.172;2022-12-01T11:59:20;32.97;;;17.90;;
7983;SDS011;4037;47.980;10.172;2022-12-01T12:02:05;34.20;;;17.70;;
7983;SDS011;4037;47.980;10.172;2022-12-01T12:07:28;29.63;;;18.13;;
7983;SDS011;4037;47.980;10.172;2022-12-01T12:17:53;32.83;;;16.53;;
7983;SDS011;4037;47.980;10.172;2022-12-01T12:23:14;29.93;;;17.50;;
7983;SDS011;4037;47.980;10.172;2022-12-01T12:33:46;31.13;;;16.77;;
7983;SDS011;4037;47.980;10.172;2022-12-01T12:38:59;33.97;;;18.87;;
7983;SDS011;4037;47.980;10.172;2022-12-01T12:51:43;34.80;;;19.70;;
7983;SDS011;4037;47.980;10.172;2022-12-01T12:56:37;39.43;;;20.33;;
7983;SDS011;4037;47.980;10.172;2022-12-01T12:59:10;36.43;;;20.97;;
7983;SDS011;4037;47.980;10.172;2022-12-01T13:01:38;44.47;;;21.67;;
7983;SDS011;4037;47.980;10.172;2022-12-01T13:04:14;36.53;;;19.37;;
7983;SDS011;4037;47.980;10.172;2022-12-01T13:06:46;36.90;;;20.43;;
7983;SDS011;4037;47.980;10.172;2022-12-01T13:09:19;35.20;;;19.33;;
7983;SDS011;4037;47.980;10.172;2022-12-01T13:11:48;42.70;;;22.00;;
7983;SDS011;4037;47.980;10.172;2022-12-01T13:14:26;39.60;;;20.97;;
7983;SDS011;4037;47.980;10.172;2022-12-01T13:16:55;39.13;;;20.30;;
7983;SDS011;4037;47.980;10.172;2022-12-01T13:19:24;37.77;;;19.57;;
7983;SDS011;4037;47.980;10.172;2022-12-01T13:21:51;39.07;;;21.43;;
7983;SDS011;4037;47.980;10.172;2022-12-01T13:24:18;41.90;;;22.03;;
7983;SDS011;4037;47.980;10.172;2022-12-01T13:26:47;39.80;;;20.93;;
7983;SDS011;4037;47.980;10.172;2022-12-01T13:29:18;38.83;;;20.90;;
7983;SDS011;4037;47.980;10.172;2022-12-01T13:31:47;38.80;;;20.87;;
7983;SDS011;4037;47.980;10.172;2022-12-01T13:34:36;41.27;;;20.97;;
7983;SDS011;4037;47.980;10.172;2022-12-01T13:37:00;37.67;;;20.37;;
7983;SDS011;4037;47.980;10.172;2022-12-01T13:39:27;36.67;;;20.47;;
7983;SDS011;4037;47.980;10.172;2022-12-01T13:49:33;36.03;;;19.70;;
7983;SDS011;4037;47.980;10.172;2022-12-01T13:57:38;33.87;;;18.33;;
7983;SDS011;4037;47.980;10.172;2022-12-01T14:02:32;34.03;;;18.13;;
7983;SDS011;4037;47.980;10.172;2022-12-01T14:07:42;40.03;;;19.57;;
7983;SDS011;4037;47.980;10.172;2022-12-01T14:10:29;31.73;;;19.53;;
7983;SDS011;4037;47.980;10.172;2022-12-01T14:12:56;36.97;;;20.33;;
7983;SDS011;4037;47.980;10.172;2022-12-01T14:15:33;34.57;;;18.37;;
7983;SDS011;4037;47.980;10.172;2022-12-01T14:18:02;37.20;;;18.83;;
7983;SDS011;4037;47.980;10.172;2022-12-01T14:20:29;32.67;;;18.47;;
7983;SDS011;4037;47.980;10.172;2022-12-01T14:25:28;36.73;;;19.90;;
7983;SDS011;4037;47.980;10.172;2022-12-01T14:28:02;34.17;;;19.23;;
7983;SDS011;4037;47.980;10.172;2022-12-01T14:35:52;33.30;;;19.37;;
7983;SDS011;4037;47.980;10.172;2022-12-01T14:38:22;34.10;;;18.70;;
7983;SDS011;4037;47.980;10.172;2022-12-01T14:40:48;29.63;;;18.07;;
7983;SDS011;4037;47.980;10.172;2022-12-01T14:43:16;35.33;;;18.27;;
7983;SDS011;4037;47.980;10.172;2022-12-01T14:46:07;32.83;;;18.30;;
7983;SDS011;4037;47.980;10.172;2022-12-01T14:48:39;36.57;;;18.53;;
7983;SDS011;4037;47.980;10.172;2022-12-01T14:51:09;33.43;;;18.00;;
7983;SDS011;4037;47.980;10.172;2022-12-01T14:53:38;32.83;;;19.00;;
7983;SDS011;4037;47.980;10.172;2022-12-01T14:56:15;35.43;;;18.10;;
7983;SDS011;4037;47.980;10.172;2022-12-01T14:58:58;37.37;;;20.17;;
7983;SDS011;4037;47.980;10.172;2022-12-01T15:01:34;36.17;;;18.53;;
7983;SDS011;4037;47.980;10.172;2022-12-01T15:04:01;35.07;;;19.43;;
7983;SDS011;4037;47.980;10.172;2022-12-01T15:06:28;32.27;;;19.07;;
7983;SDS011;4037;47.980;10.172;2022-12-01T15:09:17;31.83;;;18.07;;
7983;SDS011;4037;47.980;10.172;2022-12-01T15:16:48;33.70;;;18.23;;
7983;SDS011;4037;47.980;10.172;2022-12-01T15:19:27;33.40;;;18.50;;
7983;SDS011;4037;47.980;10.172;2022-12-01T15:21:54;35.13;;;19.50;;
7983;SDS011;4037;47.980;10.172;2022-12-01T15:24:26;35.57;;;19.57;;
7983;SDS011;4037;47.980;10.172;2022-12-01T15:26:55;33.87;;;18.43;;
7983;SDS011;4037;47.980;10.172;2022-12-01T15:29:29;34.10;;;19.37;;
7983;SDS011;4037;47.980;10.172;2022-12-01T15:34:43;32.33;;;19.60;;
7983;SDS011;4037;47.980;10.172;2022-12-01T15:37:09;31.67;;;18.23;;
7983;SDS011;4037;47.980;10.172;2022-12-01T15:39:38;39.17;;;20.23;;
7983;SDS011;4037;47.980;10.172;2022-12-01T15:42:05;32.63;;;17.60;;
7983;SDS011;4037;47.980;10.172;2022-12-01T15:44:33;36.33;;;19.93;;
7983;SDS011;4037;47.980;10.172;2022-12-01T15:47:28;34.57;;;19.20;;
7983;SDS011;4037;47.980;10.172;2022-12-01T15:49:48;33.30;;;19.40;;
7983;SDS011;4037;47.980;10.172;2022-12-01T15:52:15;33.00;;;18.80;;
7983;SDS011;4037;47.980;10.172;2022-12-01T15:54:45;36.43;;;20.07;;
7983;SDS011;4037;47.980;10.172;2022-12-01T15:57:14;32.40;;;19.17;;
7983;SDS011;4037;47.980;10.172;2022-12-01T15:59:43;39.37;;;20.97;;
7983;SDS011;4037;47.980;10.172;2022-12-01T16:04:45;33.83;;;19.43;;
7983;SDS011;4037;47.980;10.172;2022-12-01T16:07:11;32.60;;;18.70;;
7983;SDS011;4037;47.980;10.172;2022-12-01T16:10:22;30.83;;;18.63;;
7983;SDS011;4037;47.980;10.172;2022-12-01T16:12:31;36.47;;;19.67;;
7983;SDS011;4037;47.980;10.172;2022-12-01T16:17:49;35.80;;;19.87;;
7983;SDS011;4037;47.980;10.172;2022-12-01T16:20:32;39.00;;;22.03;;
7983;SDS011;4037;47.980;10.172;2022-12-01T16:23:03;36.67;;;20.37;;
7983;SDS011;4037;47.980;10.172;2022-12-01T16:28:02;39.43;;;21.30;;
7983;SDS011;4037;47.980;10.172;2022-12-01T16:30:33;35.53;;;20.40;;
7983;SDS011;4037;47.980;10.172;2022-12-01T16:33:03;38.13;;;20.70;;
7983;SDS011;4037;47.980;10.172;2022-12-01T16:35:31;36.17;;;21.33;;
7983;SDS011;4037;47.980;10.172;2022-12-01T16:37:58;39.30;;;23.27;;
7983;SDS011;4037;47.980;10.172;2022-12-01T16:40:25;42.63;;;22.87;;
7983;SDS011;4037;47.980;10.172;2022-12-01T16:42:51;41.53;;;21.80;;
7983;SDS011;4037;47.980;10.172;2022-12-01T16:45:17;38.57;;;21.83;;
7983;SDS011;4037;47.980;10.172;2022-12-01T16:47:44;43.00;;;24.57;;
7983;SDS011;4037;47.980;10.172;2022-12-01T16:50:14;44.53;;;24.10;;
7983;SDS011;4037;47.980;10.172;2022-12-01T16:52:41;42.67;;;21.87;;
7983;SDS011;4037;47.980;10.172;2022-12-01T16:57:51;45.03;;;22.50;;
7983;SDS011;4037;47.980;10.172;2022-12-01T17:00:17;37.93;;;20.77;;
7983;SDS011;4037;47.980;10.172;2022-12-01T17:02:43;41.40;;;23.60;;
7983;SDS011;4037;47.980;10.172;2022-12-01T17:05:10;43.43;;;24.03;;